createdAt,value
2023-02-11T00:00:42.104Z,-4.28
2023-02-11T00:03:09.885Z,-4.25
2023-02-11T00:05:36.813Z,-4.20
2023-02-11T00:08:04.079Z,-4.23
2023-02-11T00:10:31.012Z,-4.11
2023-02-11T00:12:58.019Z,-4.04
2023-02-11T00:15:25.160Z,-4.22
2023-02-11T00:17:52.165Z,-4.07
2023-02-11T00:20:19.281Z,-4.13
2023-02-11T00:22:46.288Z,-4.19
2023-02-11T00:25:13.193Z,-4.01
2023-02-11T00:27:40.401Z,-4.00
2023-02-11T00:30:07.965Z,-4.04
2023-02-11T00:32:34.919Z,-3.98
2023-02-11T00:35:01.802Z,-4.04
2023-02-11T00:37:28.774Z,-4.13
2023-02-11T00:39:55.664Z,-4.06
2023-02-11T00:42:22.709Z,-4.07
2023-02-11T00:44:49.640Z,-3.92
2023-02-11T00:47:17.258Z,-3.95
2023-02-11T00:49:44.263Z,-3.92
2023-02-11T00:52:11.344Z,-3.95
2023-02-11T00:54:38.264Z,-3.95
2023-02-11T00:57:06.654Z,-3.84
2023-02-11T00:59:33.738Z,-3.86
2023-02-11T01:02:01.701Z,-3.70
2023-02-11T01:04:28.748Z,-3.76
2023-02-11T01:06:55.765Z,-3.65
2023-02-11T01:09:22.688Z,-3.74
2023-02-11T01:11:49.678Z,-3.78
2023-02-11T01:14:16.586Z,-3.65
2023-02-11T01:16:43.575Z,-3.78
2023-02-11T01:19:10.642Z,-3.88
2023-02-11T01:21:37.808Z,-3.79
2023-02-11T01:24:04.755Z,-3.83
2023-02-11T01:26:31.727Z,-3.69
2023-02-11T01:28:58.696Z,-3.69
2023-02-11T01:31:28.333Z,-3.70
2023-02-11T01:33:55.282Z,-3.60
2023-02-11T01:36:22.342Z,-3.54
2023-02-11T01:38:49.359Z,-3.39
2023-02-11T01:41:16.634Z,-3.62
2023-02-11T01:43:49.193Z,-3.61
2023-02-11T01:46:19.304Z,-3.42
2023-02-11T01:48:51.827Z,-3.29
2023-02-11T01:51:27.801Z,-3.60
2023-02-11T01:53:57.328Z,-3.40
2023-02-11T01:56:27.377Z,-3.42
2023-02-11T01:58:57.454Z,-3.48
2023-02-11T02:01:26.911Z,-3.35
2023-02-11T02:04:00.707Z,-3.24
2023-02-11T02:06:35.729Z,-3.32
2023-02-11T02:09:11.544Z,-3.31
2023-02-11T02:11:38.612Z,-3.25
2023-02-11T02:14:05.765Z,-3.24
2023-02-11T02:16:36.876Z,-3.11
2023-02-11T02:19:31.777Z,-3.31
2023-02-11T02:22:46.647Z,-3.41
2023-02-11T02:25:30.634Z,-3.40
2023-02-11T02:28:12.775Z,-3.74
2023-02-11T02:31:10.678Z,-3.72
2023-02-11T02:34:03.686Z,-3.87
2023-02-11T02:36:51.957Z,-4.21
2023-02-11T02:39:26.512Z,-4.20
2023-02-11T02:41:54.564Z,-4.48
2023-02-11T02:44:21.735Z,-4.39
2023-02-11T02:46:48.782Z,-4.47
2023-02-11T02:49:17.051Z,-4.48
2023-02-11T02:52:05.933Z,-4.67
2023-02-11T02:55:03.568Z,-4.49
2023-02-11T02:57:45.743Z,-4.57
2023-02-11T03:00:18.632Z,-4.43
2023-02-11T03:02:52.344Z,-4.60
2023-02-11T03:05:41.342Z,-4.56
2023-02-11T03:08:35.451Z,-4.61
2023-02-11T03:11:04.813Z,-4.73
2023-02-11T03:13:35.714Z,-4.67
2023-02-11T03:16:13.770Z,-4.72
2023-02-11T03:18:44.269Z,-4.77
2023-02-11T03:21:12.456Z,-4.78
2023-02-11T03:23:48.631Z,-4.92
2023-02-11T03:26:23.333Z,-4.77
2023-02-11T03:29:13.058Z,-4.86
2023-02-11T03:32:03.833Z,-4.75
2023-02-11T03:34:42.643Z,-4.82
2023-02-11T03:37:28.276Z,-4.93
2023-02-11T03:40:01.660Z,-4.92
2023-02-11T03:42:35.945Z,-4.89
2023-02-11T03:45:12.383Z,-4.96
2023-02-11T03:47:45.833Z,-5.16
2023-02-11T03:50:16.767Z,-5.17
2023-02-11T03:52:45.369Z,-5.27
2023-02-11T03:55:18.922Z,-5.05
2023-02-11T03:57:46.788Z,-5.11
2023-02-11T04:00:14.755Z,-4.97
2023-02-11T04:02:42.851Z,-4.86
2023-02-11T04:05:15.725Z,-4.74
2023-02-11T04:07:42.833Z,-4.87
2023-02-11T04:10:11.775Z,-4.83
2023-02-11T04:12:38.784Z,-4.92
2023-02-11T04:15:06.834Z,-4.99
2023-02-11T04:17:33.973Z,-5.04
2023-02-11T04:20:01.301Z,-5.06
2023-02-11T04:22:28.378Z,-5.17
2023-02-11T04:24:55.286Z,-5.24
2023-02-11T04:27:22.348Z,-5.43
2023-02-11T04:29:49.396Z,-5.35
2023-02-11T04:32:16.444Z,-5.44
2023-02-11T04:34:43.399Z,-5.37
2023-02-11T04:37:10.403Z,-5.35
2023-02-11T04:39:37.431Z,-5.45
2023-02-11T04:42:04.641Z,-5.45
2023-02-11T04:44:31.821Z,-5.43
2023-02-11T04:46:59.078Z,-5.65
2023-02-11T04:49:25.992Z,-5.50
2023-02-11T04:51:52.897Z,-5.63
2023-02-11T04:54:19.759Z,-5.61
2023-02-11T04:56:46.851Z,-5.68
2023-02-11T04:59:13.810Z,-5.65
2023-02-11T05:01:41.131Z,-5.71
2023-02-11T05:04:08.176Z,-5.73
2023-02-11T05:06:35.259Z,-5.81
2023-02-11T05:09:02.151Z,-5.60
2023-02-11T05:11:29.217Z,-5.73
2023-02-11T05:13:56.177Z,-5.69
2023-02-11T05:16:23.755Z,-5.56
2023-02-11T05:18:52.564Z,-5.49
2023-02-11T05:21:19.982Z,-5.34
2023-02-11T05:23:47.731Z,-5.43
2023-02-11T05:26:15.409Z,-5.29
2023-02-11T05:28:42.854Z,-5.17
2023-02-11T05:31:10.409Z,-5.05
2023-02-11T05:33:37.902Z,-5.02
2023-02-11T05:36:08.172Z,-4.70
2023-02-11T05:38:35.900Z,-4.04
2023-02-11T05:41:03.742Z,-4.20
2023-02-11T05:43:30.758Z,-4.18
2023-02-11T05:45:57.738Z,-4.33
2023-02-11T05:48:27.054Z,-4.26
2023-02-11T05:50:55.163Z,-4.29
2023-02-11T05:53:22.358Z,-4.12
2023-02-11T05:55:49.590Z,-4.10
2023-02-11T05:58:16.719Z,-4.02
2023-02-11T06:00:43.616Z,-3.88
2023-02-11T06:03:10.536Z,-3.72
2023-02-11T06:05:37.885Z,-3.66
2023-02-11T06:08:05.010Z,-3.64
2023-02-11T06:10:31.969Z,-3.74
2023-02-11T06:12:58.864Z,-3.48
2023-02-11T06:15:25.873Z,-3.34
2023-02-11T06:17:52.771Z,-3.09
2023-02-11T06:20:19.954Z,-2.72
2023-02-11T06:22:47.426Z,-2.71
2023-02-11T06:25:14.980Z,-2.66
2023-02-11T06:27:41.913Z,-2.89
2023-02-11T06:30:09.690Z,-2.58
2023-02-11T06:32:44.321Z,-2.51
2023-02-11T06:35:13.135Z,-2.15
2023-02-11T06:37:41.375Z,-2.16
2023-02-11T06:40:09.098Z,-1.92
2023-02-11T06:42:36.036Z,-1.77
2023-02-11T06:45:03.932Z,-1.57
2023-02-11T06:47:31.080Z,-1.69
2023-02-11T06:49:58.281Z,-1.65
2023-02-11T06:52:25.195Z,-1.77
2023-02-11T06:54:52.191Z,-1.43
2023-02-11T06:57:19.093Z,-1.37
2023-02-11T06:59:46.105Z,-1.35
2023-02-11T07:02:13.115Z,-0.95
2023-02-11T07:04:40.191Z,-1.01
2023-02-11T07:07:07.573Z,-0.95
2023-02-11T07:09:34.538Z,-0.66
2023-02-11T07:12:01.542Z,-0.61
2023-02-11T07:14:28.534Z,-0.59
2023-02-11T07:16:55.514Z,-0.61
2023-02-11T07:19:22.724Z,-0.42
2023-02-11T07:21:49.677Z,-0.19
2023-02-11T07:24:16.708Z,-0.57
2023-02-11T07:26:43.600Z,-0.78
2023-02-11T07:29:10.594Z,-0.85
2023-02-11T07:31:37.599Z,-0.84
2023-02-11T07:34:04.706Z,-0.90
2023-02-11T07:36:32.461Z,-0.66
2023-02-11T07:38:59.741Z,-0.59
2023-02-11T07:41:27.216Z,-0.33
2023-02-11T07:43:54.548Z,-0.31
2023-02-11T07:46:24.508Z,-0.29
2023-02-11T07:48:52.101Z,0.03
2023-02-11T07:51:27.833Z,0.10
2023-02-11T07:53:57.255Z,0.21
2023-02-11T07:56:24.870Z,0.22
2023-02-11T07:58:51.908Z,0.56
2023-02-11T08:01:24.016Z,0.22
2023-02-11T08:03:52.076Z,0.70
2023-02-11T08:06:20.942Z,0.91
2023-02-11T08:08:48.655Z,1.01
2023-02-11T08:11:23.820Z,0.87
2023-02-11T08:13:52.093Z,0.63
2023-02-11T08:16:23.346Z,1.04
2023-02-11T08:18:51.469Z,1.19
2023-02-11T08:21:19.014Z,1.22
2023-02-11T08:23:46.908Z,1.38
2023-02-11T08:26:18.371Z,1.26
2023-02-11T08:28:46.941Z,0.98
2023-02-11T08:31:18.213Z,0.97
2023-02-11T08:33:45.794Z,1.12
2023-02-11T08:36:15.756Z,0.96
2023-02-11T08:38:43.188Z,1.22
2023-02-11T08:41:10.981Z,1.20
2023-02-11T08:43:38.288Z,1.24
2023-02-11T08:46:05.382Z,1.34
2023-02-11T08:48:32.338Z,1.11
2023-02-11T08:50:59.501Z,1.07
2023-02-11T08:53:27.086Z,1.22
2023-02-11T08:55:55.569Z,1.24
2023-02-11T08:58:22.791Z,1.15
2023-02-11T09:00:50.279Z,1.25
2023-02-11T09:03:17.792Z,0.99
2023-02-11T09:05:47.442Z,1.10
2023-02-11T09:08:14.766Z,1.32
2023-02-11T09:10:42.250Z,1.56
2023-02-11T09:13:09.828Z,1.83
2023-02-11T09:15:36.924Z,1.71
2023-02-11T09:18:05.800Z,1.66
2023-02-11T09:20:32.803Z,1.38
2023-02-11T09:23:00.006Z,1.48
2023-02-11T09:25:27.632Z,1.51
2023-02-11T09:27:54.866Z,1.45
2023-02-11T09:30:21.865Z,1.03
2023-02-11T09:32:48.867Z,0.94
2023-02-11T09:35:15.913Z,1.18
2023-02-11T09:37:42.854Z,1.04
2023-02-11T09:40:10.479Z,1.10
2023-02-11T09:42:44.221Z,1.17
2023-02-11T09:45:19.044Z,0.99
2023-02-11T09:47:51.068Z,1.05
2023-02-11T09:50:42.718Z,1.24
2023-02-11T09:53:23.711Z,1.51
2023-02-11T09:55:59.928Z,1.29
2023-02-11T09:58:35.685Z,0.88
2023-02-11T10:01:05.399Z,1.17
2023-02-11T10:03:56.595Z,0.65
2023-02-11T10:06:53.212Z,0.77
2023-02-11T10:09:50.742Z,0.51
2023-02-11T10:12:39.165Z,0.48
2023-02-11T10:15:33.498Z,0.81
2023-02-11T10:18:06.491Z,0.64
2023-02-11T10:20:49.491Z,0.57
2023-02-11T10:23:24.900Z,0.25
2023-02-11T10:25:54.952Z,0.50
2023-02-11T10:28:24.261Z,0.52
2023-02-11T10:30:51.931Z,0.35
2023-02-11T10:33:47.903Z,0.64
2023-02-11T10:36:17.264Z,0.66
2023-02-11T10:38:44.888Z,0.59
2023-02-11T10:41:21.544Z,0.70
2023-02-11T10:43:49.706Z,0.77
2023-02-11T10:46:24.552Z,1.26
2023-02-11T10:48:53.015Z,1.50
2023-02-11T10:51:26.131Z,1.35
2023-02-11T10:54:17.048Z,1.38
2023-02-11T10:56:48.621Z,1.48
2023-02-11T10:59:30.918Z,1.15
2023-02-11T11:02:01.353Z,0.84
2023-02-11T11:04:31.282Z,0.93
2023-02-11T11:07:23.599Z,0.75
2023-02-11T11:10:16.556Z,0.62
2023-02-11T11:12:46.633Z,0.41
2023-02-11T11:15:23.205Z,0.43
2023-02-11T11:17:51.828Z,0.32
2023-02-11T11:20:30.846Z,0.16
2023-02-11T11:23:22.089Z,0.43
2023-02-11T11:26:10.403Z,0.29
2023-02-11T11:28:41.392Z,-0.03
2023-02-11T11:31:23.987Z,0.16
2023-02-11T11:33:55.678Z,0.09
2023-02-11T11:36:35.668Z,-0.36
2023-02-11T11:39:16.905Z,-0.30
2023-02-11T11:41:57.084Z,-0.12
2023-02-11T11:44:28.248Z,-0.25
2023-02-11T11:47:14.889Z,-0.24
2023-02-11T11:49:45.596Z,-0.24
2023-02-11T11:52:18.352Z,-0.10
2023-02-11T11:54:52.111Z,-0.19
2023-02-11T11:57:25.823Z,-0.08
2023-02-11T11:59:53.160Z,-0.08
2023-02-11T12:02:50.470Z,-0.00
2023-02-11T12:05:27.982Z,-0.15
2023-02-11T12:07:54.847Z,-0.04
2023-02-11T12:10:28.416Z,-0.11
2023-02-11T12:13:20.081Z,-0.27
2023-02-11T12:16:08.251Z,-0.43
2023-02-11T12:18:47.697Z,-0.42
2023-02-11T12:21:36.080Z,-0.16
2023-02-11T12:24:21.571Z,-0.02
2023-02-11T12:27:22.446Z,-0.13
2023-02-11T12:30:08.241Z,-0.32
2023-02-11T12:32:47.463Z,-0.39
2023-02-11T12:35:58.750Z,-0.54
2023-02-11T12:38:48.604Z,-0.64
2023-02-11T12:41:50.423Z,-0.66
2023-02-11T12:44:54.373Z,-0.81
2023-02-11T12:47:33.745Z,-0.87
2023-02-11T12:50:16.095Z,-0.95
2023-02-11T12:53:07.204Z,-1.02
2023-02-11T12:55:40.444Z,-1.06
2023-02-11T12:58:18.465Z,-1.29
2023-02-11T13:00:51.661Z,-1.40
2023-02-11T13:03:25.533Z,-1.64
2023-02-11T13:06:00.293Z,-1.51
2023-02-11T13:08:42.661Z,-1.62
2023-02-11T13:11:18.218Z,-1.51
2023-02-11T13:13:45.234Z,-1.89
2023-02-11T13:16:31.027Z,-1.78
2023-02-11T13:19:30.506Z,-1.93
2023-02-11T13:22:10.965Z,-2.06
2023-02-11T13:24:51.545Z,-2.11
2023-02-11T13:27:41.105Z,-2.42
2023-02-11T13:30:38.905Z,-2.11
2023-02-11T13:33:18.489Z,-2.18
2023-02-11T13:35:57.708Z,-2.33
2023-02-11T13:38:31.027Z,-2.26
2023-02-11T13:41:15.489Z,-2.49
2023-02-11T13:43:43.681Z,-2.59
2023-02-11T13:46:15.709Z,-2.51
2023-02-11T13:48:49.553Z,-2.87
2023-02-11T13:51:19.582Z,-2.81
2023-02-11T13:53:54.939Z,-3.09
2023-02-11T13:56:34.457Z,-2.85
2023-02-11T13:59:04.864Z,-2.78
2023-02-11T14:01:59.292Z,-2.77
2023-02-11T14:04:27.395Z,-3.08
2023-02-11T14:07:26.430Z,-2.98
2023-02-11T14:09:53.518Z,-3.16
2023-02-11T14:12:31.394Z,-2.99
2023-02-11T14:15:18.785Z,-3.02
2023-02-11T14:17:46.051Z,-3.26
2023-02-11T14:20:39.586Z,-3.12
2023-02-11T14:23:07.595Z,-3.17
2023-02-11T14:25:34.739Z,-3.43
2023-02-11T14:28:08.898Z,-3.35
2023-02-11T14:31:05.139Z,-3.47
2023-02-11T14:33:51.234Z,-3.50
2023-02-11T14:36:31.173Z,-3.57
2023-02-11T14:39:25.715Z,-3.63
2023-02-11T14:41:53.954Z,-3.60
2023-02-11T14:44:25.508Z,-3.57
2023-02-11T14:46:54.737Z,-3.45
2023-02-11T14:49:36.693Z,-3.65
2023-02-11T14:52:15.286Z,-3.42
2023-02-11T14:54:43.759Z,-3.46
2023-02-11T14:57:17.207Z,-3.44
2023-02-11T14:59:57.534Z,-3.50
2023-02-11T15:02:29.239Z,-3.53
2023-02-11T15:05:33.910Z,-3.45
2023-02-11T15:08:04.816Z,-3.40
2023-02-11T15:10:58.795Z,-3.33
2023-02-11T15:13:29.207Z,-3.46
2023-02-11T15:16:06.345Z,-3.37
2023-02-11T15:18:44.994Z,-3.56
2023-02-11T15:21:12.173Z,-3.37
2023-02-11T15:23:39.166Z,-3.44
2023-02-11T15:26:21.470Z,-3.47
2023-02-11T15:28:48.600Z,-3.25
2023-02-11T15:31:17.902Z,-3.09
2023-02-11T15:33:45.640Z,-3.18
2023-02-11T15:36:14.959Z,-3.15
2023-02-11T15:38:42.595Z,-3.05
2023-02-11T15:41:36.531Z,-3.34
2023-02-11T15:44:03.644Z,-3.27
2023-02-11T15:46:38.682Z,-3.28
2023-02-11T15:49:06.209Z,-3.48
2023-02-11T15:51:39.478Z,-3.37
2023-02-11T15:54:18.103Z,-3.41
2023-02-11T15:56:49.027Z,-3.32
2023-02-11T15:59:28.927Z,-3.48
2023-02-11T16:01:57.353Z,-3.39
2023-02-11T16:04:28.254Z,-3.60
2023-02-11T16:06:57.472Z,-3.77
2023-02-11T16:09:30.821Z,-3.72
2023-02-11T16:12:02.059Z,-3.87
2023-02-11T16:14:29.149Z,-3.96
2023-02-11T16:16:56.062Z,-3.99
2023-02-11T16:19:26.215Z,-3.90
2023-02-11T16:21:58.183Z,-4.03
2023-02-11T16:24:34.581Z,-4.19
2023-02-11T16:27:04.223Z,-4.11
2023-02-11T16:29:34.540Z,-4.04
2023-02-11T16:32:18.147Z,-4.28
2023-02-11T16:34:45.761Z,-4.10
2023-02-11T16:37:12.837Z,-4.16
2023-02-11T16:39:40.367Z,-4.16
2023-02-11T16:42:07.687Z,-4.34
2023-02-11T16:44:35.378Z,-4.24
2023-02-11T16:47:05.151Z,-4.18
2023-02-11T16:49:38.184Z,-4.43
2023-02-11T16:52:16.081Z,-4.43
2023-02-11T16:54:43.318Z,-4.55
2023-02-11T16:57:36.676Z,-4.51
2023-02-11T17:00:07.151Z,-4.47
2023-02-11T17:02:37.516Z,-4.46
2023-02-11T17:05:07.219Z,-4.51
2023-02-11T17:07:35.403Z,-4.73
2023-02-11T17:10:03.583Z,-4.84
2023-02-11T17:12:30.682Z,-4.79
2023-02-11T17:14:58.191Z,-4.68
2023-02-11T17:17:25.299Z,-4.66
2023-02-11T17:19:52.231Z,-4.76
2023-02-11T17:22:19.133Z,-4.96
2023-02-11T17:24:46.097Z,-4.79
2023-02-11T17:27:13.835Z,-4.76
2023-02-11T17:29:41.040Z,-4.76
2023-02-11T17:32:08.009Z,-4.74
2023-02-11T17:34:35.031Z,-4.84
2023-02-11T17:37:01.978Z,-4.98
2023-02-11T17:39:28.948Z,-4.79
2023-02-11T17:41:56.007Z,-4.65
2023-02-11T17:44:22.934Z,-4.69
2023-02-11T17:46:49.921Z,-4.52
2023-02-11T17:49:17.937Z,-4.68
2023-02-11T17:51:44.852Z,-4.62
2023-02-11T17:54:17.413Z,-4.82
2023-02-11T17:56:46.237Z,-4.67
2023-02-11T17:59:14.507Z,-4.87
2023-02-11T18:01:42.674Z,-4.66
2023-02-11T18:04:14.159Z,-4.70
2023-02-11T18:06:41.238Z,-4.71
2023-02-11T18:09:08.434Z,-4.74
2023-02-11T18:11:37.476Z,-4.77
2023-02-11T18:14:06.219Z,-4.72
2023-02-11T18:16:34.500Z,-4.70
2023-02-11T18:19:04.200Z,-4.69
2023-02-11T18:21:31.111Z,-4.63
2023-02-11T18:23:59.156Z,-4.69
2023-02-11T18:26:28.327Z,-4.68
2023-02-11T18:28:57.665Z,-4.74
2023-02-11T18:31:25.673Z,-4.54
2023-02-11T18:33:52.883Z,-4.54
2023-02-11T18:36:21.095Z,-4.52
2023-02-11T18:38:48.286Z,-4.51
2023-02-11T18:41:15.726Z,-4.55
2023-02-11T18:43:42.991Z,-4.55
2023-02-11T18:46:12.636Z,-4.48
2023-02-11T18:48:40.267Z,-4.40
2023-02-11T18:51:16.325Z,-4.34
2023-02-11T18:53:43.555Z,-4.13
2023-02-11T18:56:14.599Z,-4.32
2023-02-11T18:58:41.897Z,-4.06
2023-02-11T19:01:22.740Z,-4.09
2023-02-11T19:03:50.598Z,-4.23
2023-02-11T19:06:21.017Z,-4.05
2023-02-11T19:08:48.442Z,-4.04
2023-02-11T19:11:16.114Z,-3.98
2023-02-11T19:13:43.099Z,-4.02
2023-02-11T19:16:11.651Z,-4.12
2023-02-11T19:18:38.901Z,-4.01
2023-02-11T19:21:10.444Z,-3.92
2023-02-11T19:23:37.582Z,-3.79
2023-02-11T19:26:04.826Z,-3.96
2023-02-11T19:28:32.993Z,-3.94
2023-02-11T19:31:08.867Z,-4.06
2023-02-11T19:33:35.997Z,-4.05
2023-02-11T19:36:05.655Z,-4.13
2023-02-11T19:38:32.678Z,-4.06
2023-02-11T19:41:00.086Z,-4.18
2023-02-11T19:43:27.455Z,-4.14
2023-02-11T19:45:54.721Z,-4.04
2023-02-11T19:48:22.749Z,-4.13
2023-02-11T19:50:49.683Z,-4.11
2023-02-11T19:53:19.255Z,-4.11
2023-02-11T19:55:46.579Z,-3.98
2023-02-11T19:58:16.006Z,-3.97
2023-02-11T20:00:43.767Z,-4.02
2023-02-11T20:03:10.660Z,-4.18
2023-02-11T20:05:40.197Z,-4.01
2023-02-11T20:08:07.155Z,-3.94
2023-02-11T20:10:35.092Z,-4.05
2023-02-11T20:13:02.013Z,-3.90
2023-02-11T20:15:29.041Z,-4.06
2023-02-11T20:17:56.006Z,-3.70
2023-02-11T20:20:22.988Z,-3.85
2023-02-11T20:23:15.512Z,-3.95
2023-02-11T20:25:42.571Z,-3.93
2023-02-11T20:28:09.490Z,-3.88
2023-02-11T20:30:36.500Z,-4.18
2023-02-11T20:33:03.456Z,-3.97
2023-02-11T20:35:30.517Z,-4.07
2023-02-11T20:37:57.968Z,-3.65
2023-02-11T20:40:24.921Z,-3.73
2023-02-11T20:42:51.851Z,-3.80
2023-02-11T20:45:18.935Z,-3.87
2023-02-11T20:47:45.784Z,-3.90
2023-02-11T20:50:12.745Z,-3.86
2023-02-11T20:52:39.795Z,-3.71
2023-02-11T20:55:06.888Z,-3.79
2023-02-11T20:57:33.813Z,-3.76
2023-02-11T21:00:00.823Z,-3.94
2023-02-11T21:02:27.690Z,-3.78
2023-02-11T21:04:54.710Z,-3.82
2023-02-11T21:07:21.652Z,-3.82
2023-02-11T21:09:48.642Z,-3.74
2023-02-11T21:12:15.555Z,-3.83
2023-02-11T21:14:42.617Z,-3.85
2023-02-11T21:17:09.472Z,-3.82
2023-02-11T21:19:36.407Z,-3.81
2023-02-11T21:22:03.351Z,-3.92
2023-02-11T21:24:30.505Z,-3.74
2023-02-11T21:26:57.412Z,-3.67
2023-02-11T21:29:24.638Z,-3.62
2023-02-11T21:31:51.663Z,-3.51
2023-02-11T21:34:20.036Z,-3.53
2023-02-11T21:36:47.147Z,-3.57
2023-02-11T21:39:14.596Z,-3.53
2023-02-11T21:41:41.518Z,-3.49
2023-02-11T21:44:08.639Z,-3.53
2023-02-11T21:46:35.575Z,-3.37
2023-02-11T21:49:02.782Z,-3.55
2023-02-11T21:51:29.740Z,-3.35
2023-02-11T21:54:01.661Z,-3.66
2023-02-11T21:56:30.986Z,-3.55
2023-02-11T21:58:59.045Z,-3.51
2023-02-11T22:01:31.726Z,-3.40
2023-02-11T22:03:59.398Z,-3.33
2023-02-11T22:06:29.659Z,-3.47
2023-02-11T22:08:57.355Z,-3.60
2023-02-11T22:11:24.358Z,-3.47
2023-02-11T22:13:56.014Z,-3.49
2023-02-11T22:16:23.816Z,-3.49
2023-02-11T22:18:51.041Z,-3.61
2023-02-11T22:21:20.839Z,-3.51
2023-02-11T22:23:48.051Z,-3.71
2023-02-11T22:26:18.041Z,-3.65
2023-02-11T22:28:45.529Z,-3.47
2023-02-11T22:31:22.021Z,-3.62
2023-02-11T22:33:49.350Z,-3.59
2023-02-11T22:36:22.351Z,-3.50
2023-02-11T22:38:49.981Z,-3.62
2023-02-11T22:41:17.386Z,-3.60
2023-02-11T22:43:44.843Z,-3.43
2023-02-11T22:46:14.610Z,-3.66
2023-02-11T22:48:42.121Z,-3.59
2023-02-11T22:51:14.749Z,-3.79
2023-02-11T22:53:42.387Z,-3.57
2023-02-11T22:56:15.194Z,-3.59
2023-02-11T22:58:43.308Z,-3.64
2023-02-11T23:01:10.816Z,-3.55
2023-02-11T23:03:37.852Z,-3.49
2023-02-11T23:06:05.391Z,-3.59
2023-02-11T23:08:33.047Z,-3.62
2023-02-11T23:11:09.337Z,-3.39
2023-02-11T23:13:38.976Z,-3.65
2023-02-11T23:16:08.240Z,-3.63
2023-02-11T23:18:36.332Z,-3.38
2023-02-11T23:21:12.112Z,-3.36
2023-02-11T23:23:39.961Z,-3.41
2023-02-11T23:26:10.587Z,-3.48
2023-02-11T23:28:38.172Z,-3.35
2023-02-11T23:31:21.094Z,-3.28
2023-02-11T23:33:48.922Z,-3.34
2023-02-11T23:36:17.553Z,-3.36
2023-02-11T23:38:44.861Z,-3.44
2023-02-11T23:41:12.680Z,-3.35
2023-02-11T23:43:39.680Z,-3.34
2023-02-11T23:46:07.919Z,-3.20
2023-02-11T23:48:35.425Z,-3.22
2023-02-11T23:51:03.301Z,-3.48
2023-02-11T23:53:30.305Z,-3.37
2023-02-11T23:55:57.279Z,-3.40
2023-02-11T23:58:24.743Z,-3.26
